sensor_id;sensor_type;location;lat;lon;timestamp;P1;durP1;ratioP1;P2;durP2;ratioP2
16101;SDS011;56411;52.964;10.540;2023-03-16T00:20:05;11.13;;;3.30;;
16101;SDS011;56411;52.964;10.540;2023-03-16T00:27:00;9.67;;;3.10;;
16101;SDS011;56411;52.964;10.540;2023-03-16T01:16:16;12.53;;;3.63;;
16101;SDS011;56411;52.964;10.540;2023-03-16T01:19:36;11.50;;;3.73;;
16101;SDS011;56411;52.964;10.540;2023-03-16T01:26:20;10.40;;;3.73;;
16101;SDS011;56411;52.964;10.540;2023-03-16T01:36:15;13.00;;;3.70;;
16101;SDS011;56411;52.964;10.540;2023-03-16T01:46:35;13.03;;;4.17;;
16101;SDS011;56411;52.964;10.540;2023-03-16T02:26:27;13.57;;;5.20;;
16101;SDS011;56411;52.964;10.540;2023-03-16T02:43:34;13.53;;;4.73;;
16101;SDS011;56411;52.964;10.540;2023-03-16T02:50:14;16.13;;;4.77;;
16101;SDS011;56411;52.964;10.540;2023-03-16T02:57:39;13.37;;;4.90;;
16101;SDS011;56411;52.964;10.540;2023-03-16T03:06:43;13.67;;;4.50;;
16101;SDS011;56411;52.964;10.540;2023-03-16T03:10:10;12.60;;;4.47;;
16101;SDS011;56411;52.964;10.540;2023-03-16T03:13:39;12.20;;;4.83;;
16101;SDS011;56411;52.964;10.540;2023-03-16T03:16:48;13.10;;;4.50;;
16101;SDS011;56411;52.964;10.540;2023-03-16T03:19:52;13.27;;;4.60;;
16101;SDS011;56411;52.964;10.540;2023-03-16T03:33:24;13.07;;;4.63;;
16101;SDS011;56411;52.964;10.540;2023-03-16T04:09:34;20.97;;;5.43;;
16101;SDS011;56411;52.964;10.540;2023-03-16T04:12:35;13.13;;;5.80;;
16101;SDS011;56411;52.964;10.540;2023-03-16T04:19:29;17.50;;;6.90;;
16101;SDS011;56411;52.964;10.540;2023-03-16T04:22:13;17.63;;;7.77;;
16101;SDS011;56411;52.964;10.540;2023-03-16T04:24:59;19.67;;;7.13;;
16101;SDS011;56411;52.964;10.540;2023-03-16T04:27:37;17.13;;;6.57;;
16101;SDS011;56411;52.964;10.540;2023-03-16T04:30:22;15.47;;;6.53;;
16101;SDS011;56411;52.964;10.540;2023-03-16T04:33:03;15.63;;;6.27;;
16101;SDS011;56411;52.964;10.540;2023-03-16T04:35:54;14.43;;;6.33;;
16101;SDS011;56411;52.964;10.540;2023-03-16T04:44:36;17.03;;;6.00;;
16101;SDS011;56411;52.964;10.540;2023-03-16T04:47:20;17.90;;;5.97;;
16101;SDS011;56411;52.964;10.540;2023-03-16T04:50:00;16.47;;;6.60;;
16101;SDS011;56411;52.964;10.540;2023-03-16T04:52:32;15.63;;;5.87;;
16101;SDS011;56411;52.964;10.540;2023-03-16T04:55:29;15.30;;;5.97;;
16101;SDS011;56411;52.964;10.540;2023-03-16T04:58:08;16.87;;;5.77;;
16101;SDS011;56411;52.964;10.540;2023-03-16T05:04:27;12.93;;;5.03;;
16101;SDS011;56411;52.964;10.540;2023-03-16T05:06:54;15.87;;;5.83;;
16101;SDS011;56411;52.964;10.540;2023-03-16T05:09:21;15.03;;;5.67;;
16101;SDS011;56411;52.964;10.540;2023-03-16T05:11:48;15.47;;;5.60;;
16101;SDS011;56411;52.964;10.540;2023-03-16T05:14:17;14.53;;;5.43;;
16101;SDS011;56411;52.964;10.540;2023-03-16T05:16:48;16.23;;;5.33;;
16101;SDS011;56411;52.964;10.540;2023-03-16T05:19:16;12.30;;;5.40;;
16101;SDS011;56411;52.964;10.540;2023-03-16T05:21:44;14.77;;;5.77;;
16101;SDS011;56411;52.964;10.540;2023-03-16T05:24:11;16.80;;;5.30;;
16101;SDS011;56411;52.964;10.540;2023-03-16T05:26:38;15.00;;;5.30;;
16101;SDS011;56411;52.964;10.540;2023-03-16T05:29:05;16.77;;;5.93;;
16101;SDS011;56411;52.964;10.540;2023-03-16T05:31:36;14.77;;;5.23;;
16101;SDS011;56411;52.964;10.540;2023-03-16T05:34:04;15.33;;;5.77;;
16101;SDS011;56411;52.964;10.540;2023-03-16T05:36:31;13.23;;;5.43;;
16101;SDS011;56411;52.964;10.540;2023-03-16T05:38:59;13.20;;;5.43;;
16101;SDS011;56411;52.964;10.540;2023-03-16T05:41:26;14.70;;;5.90;;
16101;SDS011;56411;52.964;10.540;2023-03-16T05:43:54;14.80;;;5.60;;
16101;SDS011;56411;52.964;10.540;2023-03-16T05:46:22;14.57;;;5.97;;
16101;SDS011;56411;52.964;10.540;2023-03-16T05:48:51;17.33;;;6.47;;
16101;SDS011;56411;52.964;10.540;2023-03-16T05:51:19;14.03;;;5.50;;
16101;SDS011;56411;52.964;10.540;2023-03-16T05:53:47;18.90;;;6.87;;
16101;SDS011;56411;52.964;10.540;2023-03-16T05:56:15;17.93;;;6.70;;
16101;SDS011;56411;52.964;10.540;2023-03-16T05:58:43;16.07;;;7.00;;
16101;SDS011;56411;52.964;10.540;2023-03-16T06:01:10;16.43;;;6.50;;
16101;SDS011;56411;52.964;10.540;2023-03-16T06:03:54;18.10;;;6.87;;
16101;SDS011;56411;52.964;10.540;2023-03-16T06:06:22;17.00;;;6.77;;
16101;SDS011;56411;52.964;10.540;2023-03-16T06:08:52;15.97;;;6.43;;
16101;SDS011;56411;52.964;10.540;2023-03-16T06:11:19;16.87;;;6.50;;
16101;SDS011;56411;52.964;10.540;2023-03-16T06:14:02;21.77;;;6.97;;
16101;SDS011;56411;52.964;10.540;2023-03-16T06:16:30;17.37;;;6.90;;
16101;SDS011;56411;52.964;10.540;2023-03-16T06:18:59;17.13;;;6.77;;
16101;SDS011;56411;52.964;10.540;2023-03-16T06:21:26;14.77;;;6.27;;
16101;SDS011;56411;52.964;10.540;2023-03-16T06:23:53;16.80;;;6.93;;
16101;SDS011;56411;52.964;10.540;2023-03-16T06:26:21;14.33;;;6.00;;
16101;SDS011;56411;52.964;10.540;2023-03-16T06:28:49;15.27;;;6.20;;
16101;SDS011;56411;52.964;10.540;2023-03-16T06:31:17;15.77;;;6.37;;
16101;SDS011;56411;52.964;10.540;2023-03-16T06:33:46;16.27;;;6.57;;
16101;SDS011;56411;52.964;10.540;2023-03-16T06:36:17;20.67;;;8.07;;
16101;SDS011;56411;52.964;10.540;2023-03-16T06:38:45;18.80;;;6.97;;
16101;SDS011;56411;52.964;10.540;2023-03-16T06:41:12;17.77;;;7.40;;
16101;SDS011;56411;52.964;10.540;2023-03-16T06:43:40;18.30;;;6.70;;
16101;SDS011;56411;52.964;10.540;2023-03-16T06:46:07;14.87;;;5.80;;
16101;SDS011;56411;52.964;10.540;2023-03-16T06:48:35;13.37;;;5.97;;
16101;SDS011;56411;52.964;10.540;2023-03-16T06:51:03;17.70;;;6.80;;
16101;SDS011;56411;52.964;10.540;2023-03-16T06:53:33;17.03;;;6.17;;
16101;SDS011;56411;52.964;10.540;2023-03-16T06:56:00;17.73;;;6.17;;
16101;SDS011;56411;52.964;10.540;2023-03-16T06:58:27;15.77;;;5.97;;
16101;SDS011;56411;52.964;10.540;2023-03-16T07:00:55;12.60;;;5.87;;
16101;SDS011;56411;52.964;10.540;2023-03-16T07:03:22;15.40;;;6.07;;
16101;SDS011;56411;52.964;10.540;2023-03-16T07:05:50;16.30;;;6.90;;
16101;SDS011;56411;52.964;10.540;2023-03-16T07:08:18;15.60;;;6.77;;
16101;SDS011;56411;52.964;10.540;2023-03-16T07:10:48;14.50;;;6.40;;
16101;SDS011;56411;52.964;10.540;2023-03-16T07:13:18;18.47;;;7.00;;
16101;SDS011;56411;52.964;10.540;2023-03-16T07:15:45;16.17;;;6.40;;
16101;SDS011;56411;52.964;10.540;2023-03-16T07:18:16;15.63;;;6.70;;
16101;SDS011;56411;52.964;10.540;2023-03-16T07:20:45;15.93;;;6.60;;
16101;SDS011;56411;52.964;10.540;2023-03-16T07:23:14;16.07;;;6.27;;
16101;SDS011;56411;52.964;10.540;2023-03-16T07:25:41;14.87;;;6.67;;
16101;SDS011;56411;52.964;10.540;2023-03-16T07:28:10;15.43;;;6.40;;
16101;SDS011;56411;52.964;10.540;2023-03-16T07:31:24;15.17;;;6.20;;
16101;SDS011;56411;52.964;10.540;2023-03-16T07:39:34;13.33;;;4.70;;
16101;SDS011;56411;52.964;10.540;2023-03-16T07:42:01;11.13;;;4.40;;
16101;SDS011;56411;52.964;10.540;2023-03-16T07:44:30;12.17;;;4.60;;
16101;SDS011;56411;52.964;10.540;2023-03-16T07:46:57;10.60;;;4.30;;
16101;SDS011;56411;52.964;10.540;2023-03-16T07:49:24;10.97;;;3.77;;
16101;SDS011;56411;52.964;10.540;2023-03-16T07:51:52;11.23;;;3.87;;
16101;SDS011;56411;52.964;10.540;2023-03-16T07:54:19;10.17;;;3.70;;
16101;SDS011;56411;52.964;10.540;2023-03-16T07:56:46;9.50;;;3.47;;
16101;SDS011;56411;52.964;10.540;2023-03-16T07:59:13;11.03;;;3.93;;
16101;SDS011;56411;52.964;10.540;2023-03-16T08:01:42;9.03;;;3.30;;
16101;SDS011;56411;52.964;10.540;2023-03-16T08:04:10;12.00;;;3.50;;
16101;SDS011;56411;52.964;10.540;2023-03-16T08:06:37;10.00;;;3.20;;
16101;SDS011;56411;52.964;10.540;2023-03-16T08:09:04;9.47;;;3.27;;
16101;SDS011;56411;52.964;10.540;2023-03-16T08:11:31;8.37;;;2.90;;
16101;SDS011;56411;52.964;10.540;2023-03-16T08:13:59;11.57;;;2.80;;
16101;SDS011;56411;52.964;10.540;2023-03-16T08:16:26;9.77;;;2.87;;
16101;SDS011;56411;52.964;10.540;2023-03-16T08:18:55;9.97;;;2.80;;
16101;SDS011;56411;52.964;10.540;2023-03-16T08:21:23;8.00;;;2.60;;
16101;SDS011;56411;52.964;10.540;2023-03-16T08:24:03;8.43;;;2.83;;
16101;SDS011;56411;52.964;10.540;2023-03-16T08:27:05;9.03;;;2.60;;
16101;SDS011;56411;52.964;10.540;2023-03-16T08:29:34;6.57;;;2.43;;
16101;SDS011;56411;52.964;10.540;2023-03-16T08:32:01;7.73;;;2.20;;
16101;SDS011;56411;52.964;10.540;2023-03-16T08:34:30;8.70;;;2.00;;
16101;SDS011;56411;52.964;10.540;2023-03-16T08:36:57;8.13;;;2.20;;
16101;SDS011;56411;52.964;10.540;2023-03-16T08:39:25;6.83;;;2.07;;
16101;SDS011;56411;52.964;10.540;2023-03-16T08:41:53;5.73;;;2.03;;
16101;SDS011;56411;52.964;10.540;2023-03-16T08:44:20;5.87;;;2.13;;
16101;SDS011;56411;52.964;10.540;2023-03-16T08:46:49;8.27;;;2.03;;
16101;SDS011;56411;52.964;10.540;2023-03-16T08:49:17;5.80;;;1.93;;
16101;SDS011;56411;52.964;10.540;2023-03-16T08:51:47;6.37;;;1.93;;
16101;SDS011;56411;52.964;10.540;2023-03-16T08:54:20;4.53;;;1.80;;
16101;SDS011;56411;52.964;10.540;2023-03-16T08:56:49;4.77;;;1.70;;
16101;SDS011;56411;52.964;10.540;2023-03-16T08:59:17;5.00;;;1.70;;
16101;SDS011;56411;52.964;10.540;2023-03-16T09:01:47;6.37;;;1.67;;
16101;SDS011;56411;52.964;10.540;2023-03-16T09:04:14;8.07;;;1.90;;
16101;SDS011;56411;52.964;10.540;2023-03-16T09:06:42;6.90;;;1.90;;
16101;SDS011;56411;52.964;10.540;2023-03-16T09:09:13;6.00;;;2.03;;
16101;SDS011;56411;52.964;10.540;2023-03-16T09:11:41;8.60;;;2.20;;
16101;SDS011;56411;52.964;10.540;2023-03-16T09:14:12;5.40;;;1.80;;
16101;SDS011;56411;52.964;10.540;2023-03-16T09:16:40;7.97;;;2.20;;
16101;SDS011;56411;52.964;10.540;2023-03-16T09:19:08;4.03;;;1.77;;
16101;SDS011;56411;52.964;10.540;2023-03-16T09:21:35;6.10;;;1.83;;
16101;SDS011;56411;52.964;10.540;2023-03-16T09:24:03;3.73;;;1.63;;
16101;SDS011;56411;52.964;10.540;2023-03-16T09:26:34;6.07;;;1.80;;
16101;SDS011;56411;52.964;10.540;2023-03-16T09:29:01;4.43;;;1.70;;
16101;SDS011;56411;52.964;10.540;2023-03-16T09:31:31;6.67;;;2.43;;
16101;SDS011;56411;52.964;10.540;2023-03-16T09:33:58;11.43;;;4.07;;
16101;SDS011;56411;52.964;10.540;2023-03-16T09:36:25;10.77;;;3.60;;
16101;SDS011;56411;52.964;10.540;2023-03-16T09:38:53;5.93;;;2.00;;
16101;SDS011;56411;52.964;10.540;2023-03-16T09:41:30;10.03;;;3.40;;
16101;SDS011;56411;52.964;10.540;2023-03-16T09:44:16;10.77;;;3.33;;
16101;SDS011;56411;52.964;10.540;2023-03-16T09:46:52;7.80;;;2.93;;
16101;SDS011;56411;52.964;10.540;2023-03-16T09:49:22;6.03;;;2.07;;
16101;SDS011;56411;52.964;10.540;2023-03-16T09:51:54;8.20;;;1.70;;
16101;SDS011;56411;52.964;10.540;2023-03-16T09:54:31;5.40;;;1.83;;
16101;SDS011;56411;52.964;10.540;2023-03-16T09:57:25;6.07;;;1.80;;
16101;SDS011;56411;52.964;10.540;2023-03-16T10:06:29;5.53;;;1.60;;
16101;SDS011;56411;52.964;10.540;2023-03-16T10:09:00;6.10;;;1.70;;
16101;SDS011;56411;52.964;10.540;2023-03-16T10:11:43;6.10;;;1.77;;
16101;SDS011;56411;52.964;10.540;2023-03-16T10:14:14;4.77;;;1.50;;
16101;SDS011;56411;52.964;10.540;2023-03-16T10:16:49;8.03;;;1.70;;
16101;SDS011;56411;52.964;10.540;2023-03-16T10:19:24;3.37;;;1.60;;
16101;SDS011;56411;52.964;10.540;2023-03-16T10:21:59;6.93;;;2.00;;
16101;SDS011;56411;52.964;10.540;2023-03-16T10:24:33;5.53;;;1.93;;
16101;SDS011;56411;52.964;10.540;2023-03-16T10:27:11;4.53;;;1.70;;
16101;SDS011;56411;52.964;10.540;2023-03-16T10:29:47;3.97;;;1.77;;
16101;SDS011;56411;52.964;10.540;2023-03-16T10:32:15;4.67;;;1.90;;
16101;SDS011;56411;52.964;10.540;2023-03-16T10:34:45;4.80;;;1.50;;
16101;SDS011;56411;52.964;10.540;2023-03-16T10:37:17;4.47;;;1.97;;
16101;SDS011;56411;52.964;10.540;2023-03-16T10:39:47;7.57;;;2.40;;
16101;SDS011;56411;52.964;10.540;2023-03-16T10:42:15;4.00;;;1.70;;
16101;SDS011;56411;52.964;10.540;2023-03-16T10:44:44;2.10;;;1.30;;
16101;SDS011;56411;52.964;10.540;2023-03-16T10:47:18;1.87;;;1.50;;
16101;SDS011;56411;52.964;10.540;2023-03-16T10:49:48;4.73;;;2.00;;
16101;SDS011;56411;52.964;10.540;2023-03-16T10:52:18;3.03;;;1.20;;
16101;SDS011;56411;52.964;10.540;2023-03-16T10:54:49;4.87;;;1.70;;
16101;SDS011;56411;52.964;10.540;2023-03-16T10:57:22;3.87;;;1.30;;
16101;SDS011;56411;52.964;10.540;2023-03-16T10:59:53;2.87;;;1.30;;
16101;SDS011;56411;52.964;10.540;2023-03-16T11:02:23;4.80;;;1.40;;
16101;SDS011;56411;52.964;10.540;2023-03-16T11:04:57;4.10;;;1.33;;
16101;SDS011;56411;52.964;10.540;2023-03-16T11:07:25;4.10;;;1.50;;
16101;SDS011;56411;52.964;10.540;2023-03-16T11:09:53;3.63;;;1.43;;
16101;SDS011;56411;52.964;10.540;2023-03-16T11:12:24;3.17;;;1.40;;
16101;SDS011;56411;52.964;10.540;2023-03-16T11:15:02;4.13;;;1.27;;
16101;SDS011;56411;52.964;10.540;2023-03-16T11:17:31;3.77;;;1.40;;
16101;SDS011;56411;52.964;10.540;2023-03-16T11:20:04;1.73;;;1.03;;
16101;SDS011;56411;52.964;10.540;2023-03-16T11:22:38;2.97;;;1.37;;
16101;SDS011;56411;52.964;10.540;2023-03-16T11:25:08;4.03;;;1.60;;
16101;SDS011;56411;52.964;10.540;2023-03-16T11:27:42;3.07;;;1.60;;
16101;SDS011;56411;52.964;10.540;2023-03-16T11:30:18;1.10;;;1.00;;
16101;SDS011;56411;52.964;10.540;2023-03-16T11:32:52;5.37;;;1.40;;
16101;SDS011;56411;52.964;10.540;2023-03-16T11:35:21;1.87;;;1.03;;
16101;SDS011;56411;52.964;10.540;2023-03-16T11:38:00;3.77;;;1.30;;
16101;SDS011;56411;52.964;10.540;2023-03-16T11:40:40;2.70;;;1.10;;
16101;SDS011;56411;52.964;10.540;2023-03-16T11:46:14;1.77;;;1.17;;
16101;SDS011;56411;52.964;10.540;2023-03-16T11:48:45;2.90;;;1.30;;
16101;SDS011;56411;52.964;10.540;2023-03-16T11:51:44;3.03;;;1.20;;
16101;SDS011;56411;52.964;10.540;2023-03-16T11:54:25;5.35;;;1.30;;
16101;SDS011;56411;52.964;10.540;2023-03-16T11:57:16;3.22;;;1.52;;
16101;SDS011;56411;52.964;10.540;2023-03-16T12:00:00;3.72;;;1.40;;
16101;SDS011;56411;52.964;10.540;2023-03-16T12:02:40;2.05;;;0.90;;
16101;SDS011;56411;52.964;10.540;2023-03-16T12:08:11;6.28;;;3.00;;
16101;SDS011;56411;52.964;10.540;2023-03-16T12:10:51;3.90;;;1.90;;
16101;SDS011;56411;52.964;10.540;2023-03-16T12:13:29;4.63;;;1.50;;
16101;SDS011;56411;52.964;10.540;2023-03-16T12:16:09;3.22;;;1.20;;
16101;SDS011;56411;52.964;10.540;2023-03-16T12:18:47;3.10;;;1.23;;
16101;SDS011;56411;52.964;10.540;2023-03-16T12:21:20;4.10;;;1.50;;
16101;SDS011;56411;52.964;10.540;2023-03-16T12:23:56;3.47;;;1.20;;
16101;SDS011;56411;52.964;10.540;2023-03-16T12:26:27;4.13;;;1.33;;
16101;SDS011;56411;52.964;10.540;2023-03-16T12:28:59;3.55;;;1.20;;
16101;SDS011;56411;52.964;10.540;2023-03-16T12:31:40;2.42;;;1.00;;
16101;SDS011;56411;52.964;10.540;2023-03-16T12:34:20;2.72;;;1.17;;
16101;SDS011;56411;52.964;10.540;2023-03-16T12:39:49;3.85;;;1.30;;
16101;SDS011;56411;52.964;10.540;2023-03-16T12:42:34;3.45;;;1.30;;
16101;SDS011;56411;52.964;10.540;2023-03-16T12:45:10;5.60;;;1.90;;
16101;SDS011;56411;52.964;10.540;2023-03-16T12:47:42;3.38;;;1.30;;
16101;SDS011;56411;52.964;10.540;2023-03-16T12:50:19;3.00;;;1.30;;
16101;SDS011;56411;52.964;10.540;2023-03-16T12:52:49;2.92;;;1.45;;
16101;SDS011;56411;52.964;10.540;2023-03-16T12:55:19;2.22;;;1.05;;
16101;SDS011;56411;52.964;10.540;2023-03-16T12:57:57;3.45;;;1.30;;
16101;SDS011;56411;52.964;10.540;2023-03-16T13:00:31;2.05;;;1.20;;
16101;SDS011;56411;52.964;10.540;2023-03-16T13:03:01;5.05;;;1.50;;
16101;SDS011;56411;52.964;10.540;2023-03-16T13:05:34;3.08;;;1.58;;
16101;SDS011;56411;52.964;10.540;2023-03-16T13:08:06;2.92;;;1.50;;
16101;SDS011;56411;52.964;10.540;2023-03-16T13:10:36;4.90;;;1.40;;
16101;SDS011;56411;52.964;10.540;2023-03-16T13:13:08;3.22;;;1.40;;
16101;SDS011;56411;52.964;10.540;2023-03-16T13:15:39;3.60;;;1.27;;
16101;SDS011;56411;52.964;10.540;2023-03-16T13:21:12;4.15;;;1.30;;
16101;SDS011;56411;52.964;10.540;2023-03-16T13:23:50;3.20;;;1.42;;
16101;SDS011;56411;52.964;10.540;2023-03-16T13:26:27;5.47;;;1.60;;
16101;SDS011;56411;52.964;10.540;2023-03-16T13:29:19;5.82;;;1.80;;
16101;SDS011;56411;52.964;10.540;2023-03-16T13:31:48;3.50;;;1.52;;
16101;SDS011;56411;52.964;10.540;2023-03-16T13:34:21;3.45;;;1.42;;
16101;SDS011;56411;52.964;10.540;2023-03-16T13:36:54;6.43;;;1.60;;
16101;SDS011;56411;52.964;10.540;2023-03-16T13:39:23;3.80;;;1.45;;
16101;SDS011;56411;52.964;10.540;2023-03-16T13:41:53;4.57;;;1.42;;
16101;SDS011;56411;52.964;10.540;2023-03-16T13:44:23;3.88;;;1.50;;
16101;SDS011;56411;52.964;10.540;2023-03-16T13:46:52;5.13;;;2.05;;
16101;SDS011;56411;52.964;10.540;2023-03-16T13:49:19;4.47;;;2.00;;
16101;SDS011;56411;52.964;10.540;2023-03-16T13:51:46;3.92;;;1.55;;
16101;SDS011;56411;52.964;10.540;2023-03-16T13:57:18;4.18;;;1.70;;
16101;SDS011;56411;52.964;10.540;2023-03-16T14:00:17;4.60;;;1.80;;
16101;SDS011;56411;52.964;10.540;2023-03-16T14:03:16;2.70;;;1.30;;
16101;SDS011;56411;52.964;10.540;2023-03-16T14:06:01;3.75;;;1.40;;
16101;SDS011;56411;52.964;10.540;2023-03-16T14:08:29;6.47;;;2.03;;
16101;SDS011;56411;52.964;10.540;2023-03-16T14:10:59;3.08;;;1.50;;
16101;SDS011;56411;52.964;10.540;2023-03-16T14:13:31;3.00;;;1.30;;
16101;SDS011;56411;52.964;10.540;2023-03-16T14:16:05;3.47;;;1.40;;
16101;SDS011;56411;52.964;10.540;2023-03-16T14:18:39;6.73;;;1.80;;
16101;SDS011;56411;52.964;10.540;2023-03-16T14:21:08;4.33;;;1.80;;
16101;SDS011;56411;52.964;10.540;2023-03-16T14:23:42;6.17;;;1.60;;
16101;SDS011;56411;52.964;10.540;2023-03-16T14:26:14;4.43;;;1.57;;
16101;SDS011;56411;52.964;10.540;2023-03-16T14:28:52;5.73;;;1.70;;
16101;SDS011;56411;52.964;10.540;2023-03-16T14:31:22;4.47;;;1.97;;
16101;SDS011;56411;52.964;10.540;2023-03-16T14:33:59;5.60;;;1.80;;
16101;SDS011;56411;52.964;10.540;2023-03-16T14:36:33;3.90;;;1.97;;
16101;SDS011;56411;52.964;10.540;2023-03-16T14:39:11;3.63;;;1.47;;
16101;SDS011;56411;52.964;10.540;2023-03-16T14:41:43;2.97;;;1.30;;
16101;SDS011;56411;52.964;10.540;2023-03-16T14:44:16;4.20;;;1.23;;
16101;SDS011;56411;52.964;10.540;2023-03-16T14:46:47;3.63;;;1.77;;
16101;SDS011;56411;52.964;10.540;2023-03-16T14:49:19;4.73;;;2.07;;
16101;SDS011;56411;52.964;10.540;2023-03-16T14:51:50;4.33;;;1.70;;
16101;SDS011;56411;52.964;10.540;2023-03-16T14:54:21;4.70;;;1.53;;
16101;SDS011;56411;52.964;10.540;2023-03-16T14:56:50;4.33;;;1.80;;
16101;SDS011;56411;52.964;10.540;2023-03-16T14:59:19;5.77;;;2.00;;
16101;SDS011;56411;52.964;10.540;2023-03-16T15:01:47;3.27;;;1.50;;
16101;SDS011;56411;52.964;10.540;2023-03-16T15:04:16;4.27;;;1.40;;
16101;SDS011;56411;52.964;10.540;2023-03-16T15:06:49;3.17;;;1.40;;
16101;SDS011;56411;52.964;10.540;2023-03-16T15:09:23;2.83;;;1.30;;
16101;SDS011;56411;52.964;10.540;2023-03-16T15:11:58;3.57;;;1.50;;
16101;SDS011;56411;52.964;10.540;2023-03-16T15:14:28;2.80;;;1.43;;
16101;SDS011;56411;52.964;10.540;2023-03-16T15:17:13;2.30;;;1.23;;
16101;SDS011;56411;52.964;10.540;2023-03-16T15:19:40;2.77;;;1.40;;
16101;SDS011;56411;52.964;10.540;2023-03-16T15:22:08;3.77;;;1.40;;
16101;SDS011;56411;52.964;10.540;2023-03-16T15:24:37;3.13;;;1.33;;
16101;SDS011;56411;52.964;10.540;2023-03-16T15:27:10;2.77;;;1.23;;
16101;SDS011;56411;52.964;10.540;2023-03-16T15:29:45;3.53;;;1.30;;
16101;SDS011;56411;52.964;10.540;2023-03-16T15:32:15;1.20;;;1.10;;
16101;SDS011;56411;52.964;10.540;2023-03-16T15:34:43;4.37;;;1.80;;
16101;SDS011;56411;52.964;10.540;2023-03-16T15:37:14;1.97;;;1.20;;
16101;SDS011;56411;52.964;10.540;2023-03-16T15:39:43;4.80;;;1.50;;
16101;SDS011;56411;52.964;10.540;2023-03-16T15:42:14;2.43;;;1.23;;
16101;SDS011;56411;52.964;10.540;2023-03-16T15:44:42;2.17;;;1.30;;
16101;SDS011;56411;52.964;10.540;2023-03-16T15:47:11;3.43;;;1.53;;
16101;SDS011;56411;52.964;10.540;2023-03-16T15:49:39;2.47;;;1.30;;
16101;SDS011;56411;52.964;10.540;2023-03-16T15:52:09;2.60;;;1.33;;
16101;SDS011;56411;52.964;10.540;2023-03-16T15:54:46;5.53;;;1.60;;
16101;SDS011;56411;52.964;10.540;2023-03-16T15:57:15;3.80;;;1.70;;
16101;SDS011;56411;52.964;10.540;2023-03-16T15:59:43;5.43;;;1.80;;
16101;SDS011;56411;52.964;10.540;2023-03-16T16:02:19;2.83;;;1.30;;
16101;SDS011;56411;52.964;10.540;2023-03-16T16:04:53;3.33;;;1.50;;
16101;SDS011;56411;52.964;10.540;2023-03-16T16:07:20;5.67;;;1.50;;
16101;SDS011;56411;52.964;10.540;2023-03-16T16:09:47;2.30;;;1.30;;
16101;SDS011;56411;52.964;10.540;2023-03-16T16:12:16;3.60;;;1.50;;
16101;SDS011;56411;52.964;10.540;2023-03-16T16:14:51;4.23;;;1.50;;
16101;SDS011;56411;52.964;10.540;2023-03-16T16:17:20;3.60;;;1.50;;
16101;SDS011;56411;52.964;10.540;2023-03-16T16:19:50;5.87;;;1.90;;
16101;SDS011;56411;52.964;10.540;2023-03-16T16:22:18;5.73;;;2.00;;
16101;SDS011;56411;52.964;10.540;2023-03-16T16:24:46;4.77;;;1.80;;
16101;SDS011;56411;52.964;10.540;2023-03-16T16:27:13;4.90;;;1.53;;
16101;SDS011;56411;52.964;10.540;2023-03-16T16:29:42;5.53;;;1.80;;
16101;SDS011;56411;52.964;10.540;2023-03-16T16:32:16;5.03;;;1.63;;
16101;SDS011;56411;52.964;10.540;2023-03-16T16:34:54;4.53;;;1.90;;
16101;SDS011;56411;52.964;10.540;2023-03-16T16:37:32;7.83;;;2.10;;
16101;SDS011;56411;52.964;10.540;2023-03-16T16:39:59;7.50;;;2.00;;
16101;SDS011;56411;52.964;10.540;2023-03-16T16:42:27;5.13;;;1.90;;
16101;SDS011;56411;52.964;10.540;2023-03-16T16:44:58;5.90;;;2.00;;
16101;SDS011;56411;52.964;10.540;2023-03-16T16:47:27;7.13;;;2.10;;
16101;SDS011;56411;52.964;10.540;2023-03-16T16:49:55;8.40;;;2.40;;
16101;SDS011;56411;52.964;10.540;2023-03-16T16:52:22;6.30;;;2.07;;
16101;SDS011;56411;52.964;10.540;2023-03-16T16:54:50;4.90;;;2.10;;
16101;SDS011;56411;52.964;10.540;2023-03-16T16:57:18;4.40;;;2.27;;
16101;SDS011;56411;52.964;10.540;2023-03-16T16:59:46;5.23;;;2.30;;
16101;SDS011;56411;52.964;10.540;2023-03-16T17:02:28;5.77;;;2.23;;
16101;SDS011;56411;52.964;10.540;2023-03-16T17:04:56;12.23;;;3.70;;
16101;SDS011;56411;52.964;10.540;2023-03-16T17:07:24;8.97;;;2.93;;
16101;SDS011;56411;52.964;10.540;2023-03-16T17:09:51;11.63;;;3.07;;
16101;SDS011;56411;52.964;10.540;2023-03-16T17:12:20;7.17;;;2.90;;
16101;SDS011;56411;52.964;10.540;2023-03-16T17:14:48;7.73;;;2.60;;
16101;SDS011;56411;52.964;10.540;2023-03-16T17:17:16;7.63;;;2.67;;
16101;SDS011;56411;52.964;10.540;2023-03-16T17:19:46;7.90;;;3.10;;
16101;SDS011;56411;52.964;10.540;2023-03-16T17:22:18;4.23;;;2.20;;
16101;SDS011;56411;52.964;10.540;2023-03-16T17:24:48;6.53;;;2.30;;
16101;SDS011;56411;52.964;10.540;2023-03-16T17:27:17;6.80;;;2.20;;
16101;SDS011;56411;52.964;10.540;2023-03-16T17:29:48;8.13;;;2.70;;
16101;SDS011;56411;52.964;10.540;2023-03-16T17:32:17;8.50;;;2.90;;
16101;SDS011;56411;52.964;10.540;2023-03-16T17:34:49;8.10;;;2.90;;
16101;SDS011;56411;52.964;10.540;2023-03-16T17:37:18;9.73;;;3.10;;
16101;SDS011;56411;52.964;10.540;2023-03-16T17:39:46;8.90;;;3.00;;
16101;SDS011;56411;52.964;10.540;2023-03-16T17:42:14;8.83;;;2.77;;
16101;SDS011;56411;52.964;10.540;2023-03-16T17:44:43;7.13;;;2.90;;
16101;SDS011;56411;52.964;10.540;2023-03-16T17:47:14;8.47;;;2.80;;
16101;SDS011;56411;52.964;10.540;2023-03-16T17:49:45;6.43;;;2.60;;
16101;SDS011;56411;52.964;10.540;2023-03-16T17:52:16;9.13;;;3.00;;
16101;SDS011;56411;52.964;10.540;2023-03-16T17:54:44;8.60;;;2.87;;
16101;SDS011;56411;52.964;10.540;2023-03-16T17:57:26;11.00;;;3.57;;
16101;SDS011;56411;52.964;10.540;2023-03-16T18:00:01;8.90;;;3.00;;
16101;SDS011;56411;52.964;10.540;2023-03-16T18:02:39;8.73;;;3.20;;
16101;SDS011;56411;52.964;10.540;2023-03-16T18:05:21;11.00;;;4.10;;
16101;SDS011;56411;52.964;10.540;2023-03-16T18:07:50;10.23;;;3.80;;
16101;SDS011;56411;52.964;10.540;2023-03-16T18:10:19;11.07;;;3.90;;
16101;SDS011;56411;52.964;10.540;2023-03-16T18:12:51;10.67;;;4.40;;
16101;SDS011;56411;52.964;10.540;2023-03-16T18:15:34;13.80;;;5.47;;
16101;SDS011;56411;52.964;10.540;2023-03-16T18:18:14;16.13;;;7.27;;
16101;SDS011;56411;52.964;10.540;2023-03-16T18:24:28;9.97;;;4.03;;
16101;SDS011;56411;52.964;10.540;2023-03-16T18:26:56;13.90;;;6.40;;
16101;SDS011;56411;52.964;10.540;2023-03-16T18:29:30;11.60;;;5.20;;
16101;SDS011;56411;52.964;10.540;2023-03-16T18:31:58;11.27;;;4.37;;
16101;SDS011;56411;52.964;10.540;2023-03-16T18:34:35;9.73;;;3.67;;
16101;SDS011;56411;52.964;10.540;2023-03-16T18:37:10;9.70;;;3.43;;
16101;SDS011;56411;52.964;10.540;2023-03-16T18:39:43;9.57;;;3.50;;
16101;SDS011;56411;52.964;10.540;2023-03-16T18:42:57;11.60;;;4.00;;
16101;SDS011;56411;52.964;10.540;2023-03-16T18:45:55;9.13;;;3.07;;
16101;SDS011;56411;52.964;10.540;2023-03-16T18:48:23;9.43;;;3.30;;
16101;SDS011;56411;52.964;10.540;2023-03-16T18:50:54;8.23;;;3.00;;
16101;SDS011;56411;52.964;10.540;2023-03-16T18:53:27;9.90;;;3.23;;
16101;SDS011;56411;52.964;10.540;2023-03-16T18:55:56;9.60;;;3.70;;
16101;SDS011;56411;52.964;10.540;2023-03-16T18:58:26;8.57;;;2.97;;
16101;SDS011;56411;52.964;10.540;2023-03-16T19:01:19;9.73;;;3.43;;
16101;SDS011;56411;52.964;10.540;2023-03-16T19:04:01;10.17;;;3.93;;
16101;SDS011;56411;52.964;10.540;2023-03-16T19:07:03;10.50;;;3.57;;
16101;SDS011;56411;52.964;10.540;2023-03-16T19:09:47;10.70;;;3.73;;
16101;SDS011;56411;52.964;10.540;2023-03-16T19:12:36;10.30;;;4.13;;